Portada
METAR-TAF:

METAR-TAF

Aeroports :

Hyannis, Massachusetts, Estats Units d'Amèrica

latitud: 41-40-19N, longitud: 070-16-11W, altitud: 15 m

Observació

L'informe es va fer fa 24 minuts, a les 08:56 UTC
Vent 9 kt del Sud-Oest
Temperatura 6°C
Humitat 70%
Pressió 1011 hPa
Visibilitat: 16.1 km
Escasses núvols a una alçada de 6000 ft

METAR: KHYA 020856Z AUTO 23009KT 10SM FEW060 06/01 A2984 RMK AO2 SLP104 T00610006 51013

Hora: 04:20 (09:20 UTC)

Pronòstic

L'informe es va fer fa 3 hores i 40 minuts, a les 05:40 UTC
Pronòstic vàlid del 02 a les 06 UTC al 03 a les 06 UTC
Vent 15 kt del Sud-Oest amb ràfegues de 24 kt
Visibilitat: 10 km
Cel ennuvolat a una alçada de 5000 ft
A partir de les 02 a les 2200 UTC
Vent 12 kt del Oest/Sud-Oest
Visibilitat: 10 km
Cel ennuvolat a una alçada de 5000 ft

TAF: KHYA 020540Z 0206/0306 23015G24KT P6SM BKN050 FM022200 25012KT P6SM BKN050

Observacions i pronòstics meteorològics de més de 4000 aeroports (METAR i TAF).

Les estacions disponibles són els punts grocs i vermells al mapa.

Posi el ratolí al punt desitjat per veure el nom de l'estació.

Feu clic per veure les observacions i els pronòstics meteorològics.

Per canviar el mapa: feu clic els botons verds amb una creu de color negre per apropar; al botó verd amb un guió per allunyar la imatge; o en les fletxes verdes per a mapes adjacents.


METAR-TAF: